<?xml version="1.0" encoding="UTF-8"?>
<gpx xmlns="http://www.topografix.com/GPX/1/1" xmlns:gpsies="http://www.gpsies.com/GPX/1/0" creator="GPSies http://www.gpsies.com - Tour 07-2 Bremen-Nord mal anders - zur&amp;#252;ck ldW" version="1.1" xmlns:xsi="http://www.w3.org/2001/XMLSchema-instance" xsi:schemaLocation="http://www.topografix.com/GPX/1/1 http://www.topografix.com/GPX/1/1/gpx.xsd http://www.gpsies.com/GPX/1/0 http://www.gpsies.com/gpsies.xsd">
  <metadata>
    <name>Tour 07-2 Bremen-Nord mal anders - zurück ldW</name>
    <author>
      <name>kaapeeh</name>
      <link href="http://www.gpsies.com/mapUser.do?username=kaapeeh">
        <text>kaapeeh on GPSies.com</text>
        <type>GPSiesUserOnWeb</type>
      </link>
    </author>
    <link href="http://www.gpsies.com/map.do?fileId=bjqdluovaqpcynuw">
      <text>Tour 07-2 Bremen-Nord mal anders - zurück ldW on GPSies.com</text>
      <type>trackOnWeb</type>
    </link>
    <time>2015-12-21T11:25:09Z</time>
    <extensions>
      <gpsies:property>one-way trip</gpsies:property>
      <gpsies:trackLengthMeter>31999.446747376005</gpsies:trackLengthMeter>
      <gpsies:totalAscentMeter>127.0</gpsies:totalAscentMeter>
      <gpsies:totalDescentMeter>126.0</gpsies:totalDescentMeter>
      <gpsies:minHeightMeter>-2.0</gpsies:minHeightMeter>
      <gpsies:maxHeightMeter>14.0</gpsies:maxHeightMeter>
    </extensions>
  </metadata>
  <trk>
    <name>Tour 07-2 Bremen-Nord mal anders - zurück ldW on GPSies.com</name>
    <link href="http://www.gpsies.com/map.do?fileId=bjqdluovaqpcynuw">
      <type>trackOnWeb</type>
    </link>
    <link href="http://www.gpsies.com/charts/bj/map/bjqdluovaqpcynuw_map.png">
      <type>elevationChartUrlMap</type>
    </link>
    <link href="http://www.gpsies.com/charts/bj/mapThumb/bjqdluovaqpcynuw_mapThumb.png">
      <type>elevationChartUrlMapThumb</type>
    </link>
    <link href="http://www.gpsies.com/charts/bj/tab/bjqdluovaqpcynuw_tab.png">
      <type>elevationChartUrlTab</type>
    </link>
    <trkseg>
      <trkpt lat="53.16962710" lon="8.628880970">
        <ele>7.0000000</ele>
        <time>2010-01-01T00:00:00Z</time>
      </trkpt>
      <trkpt lat="53.16970740" lon="8.627895410">
        <ele>7.0000000</ele>
        <time>2010-01-01T00:00:23Z</time>
      </trkpt>
      <trkpt lat="53.16977240" lon="8.627146870">
        <ele>5.0000000</ele>
        <time>2010-01-01T00:00:42Z</time>
      </trkpt>
      <trkpt lat="53.16973180" lon="8.627087380">
        <ele>5.0000000</ele>
        <time>2010-01-01T00:00:44Z</time>
      </trkpt>
      <trkpt lat="53.16966860" lon="8.626998170">
        <ele>4.0000000</ele>
        <time>2010-01-01T00:00:47Z</time>
      </trkpt>
      <trkpt lat="53.16977180" lon="8.626794210">
        <ele>5.0000000</ele>
        <time>2010-01-01T00:00:53Z</time>
      </trkpt>
      <trkpt lat="53.16964960" lon="8.626477710">
        <ele>4.0000000</ele>
        <time>2010-01-01T00:01:02Z</time>
      </trkpt>
      <trkpt lat="53.16961420" lon="8.625817890">
        <ele>6.0000000</ele>
        <time>2010-01-01T00:01:18Z</time>
      </trkpt>
      <trkpt lat="53.16971070" lon="8.625394100">
        <ele>8.0000000</ele>
        <time>2010-01-01T00:01:29Z</time>
      </trkpt>
      <trkpt lat="53.16940200" lon="8.624975680">
        <ele>9.0000000</ele>
        <time>2010-01-01T00:01:45Z</time>
      </trkpt>
      <trkpt lat="53.16921220" lon="8.624476790">
        <ele>9.0000000</ele>
        <time>2010-01-01T00:01:59Z</time>
      </trkpt>
      <trkpt lat="53.16889070" lon="8.624085180">
        <ele>8.0000000</ele>
        <time>2010-01-01T00:02:15Z</time>
      </trkpt>
      <trkpt lat="53.16869770" lon="8.623961800">
        <ele>5.0000000</ele>
        <time>2010-01-01T00:02:24Z</time>
      </trkpt>
      <trkpt lat="53.16880060" lon="8.623639940">
        <ele>7.0000000</ele>
        <time>2010-01-01T00:02:32Z</time>
      </trkpt>
      <trkpt lat="53.16874920" lon="8.623473640">
        <ele>6.0000000</ele>
        <time>2010-01-01T00:02:37Z</time>
      </trkpt>
      <trkpt lat="53.16889070" lon="8.623076670">
        <ele>7.0000000</ele>
        <time>2010-01-01T00:02:48Z</time>
      </trkpt>
      <trkpt lat="53.16889070" lon="8.622953290">
        <ele>6.0000000</ele>
        <time>2010-01-01T00:02:51Z</time>
      </trkpt>
      <trkpt lat="53.16876520" lon="8.622905010">
        <ele>3.0000000</ele>
        <time>2010-01-01T00:02:56Z</time>
      </trkpt>
      <trkpt lat="53.16868900" lon="8.622788150">
        <ele>2.0000000</ele>
        <time>2010-01-01T00:03:00Z</time>
      </trkpt>
      <trkpt lat="53.16851640" lon="8.622221210">
        <ele>1.0000000</ele>
        <time>2010-01-01T00:03:15Z</time>
      </trkpt>
      <trkpt lat="53.16838920" lon="8.621803470">
        <ele>1.0000000</ele>
        <time>2010-01-01T00:03:27Z</time>
      </trkpt>
      <trkpt lat="53.16752410" lon="8.620068290">
        <ele>2.0000000</ele>
        <time>2010-01-01T00:04:21Z</time>
      </trkpt>
      <trkpt lat="53.16653990" lon="8.618093130">
        <ele>2.0000000</ele>
        <time>2010-01-01T00:05:22Z</time>
      </trkpt>
      <trkpt lat="53.16630190" lon="8.618211150">
        <ele>2.0000000</ele>
        <time>2010-01-01T00:05:32Z</time>
      </trkpt>
      <trkpt lat="53.16588380" lon="8.618323800">
        <ele>4.0000000</ele>
        <time>2010-01-01T00:05:49Z</time>
      </trkpt>
      <trkpt lat="53.16574880" lon="8.618237970">
        <ele>5.0000000</ele>
        <time>2010-01-01T00:05:55Z</time>
      </trkpt>
      <trkpt lat="53.16508960" lon="8.617404900">
        <ele>5.0000000</ele>
        <time>2010-01-01T00:06:28Z</time>
      </trkpt>
      <trkpt lat="53.16490940" lon="8.617283100">
        <ele>4.0000000</ele>
        <time>2010-01-01T00:06:36Z</time>
      </trkpt>
      <trkpt lat="53.16467460" lon="8.617261640">
        <ele>2.0000000</ele>
        <time>2010-01-01T00:06:45Z</time>
      </trkpt>
      <trkpt lat="53.16443660" lon="8.617358200">
        <ele>2.0000000</ele>
        <time>2010-01-01T00:06:55Z</time>
      </trkpt>
      <trkpt lat="53.16402500" lon="8.617567420">
        <ele>3.0000000</ele>
        <time>2010-01-01T00:07:12Z</time>
      </trkpt>
      <trkpt lat="53.16387060" lon="8.617588870">
        <ele>3.0000000</ele>
        <time>2010-01-01T00:07:19Z</time>
      </trkpt>
      <trkpt lat="53.16284140" lon="8.616419430">
        <ele>1.0000000</ele>
        <time>2010-01-01T00:08:08Z</time>
      </trkpt>
      <trkpt lat="53.16251660" lon="8.615523570">
        <ele>0.0000000</ele>
        <time>2010-01-01T00:08:34Z</time>
      </trkpt>
      <trkpt lat="53.16238600" lon="8.615275120">
        <ele>0.0000000</ele>
        <time>2010-01-01T00:08:42Z</time>
      </trkpt>
      <trkpt lat="53.16193900" lon="8.614650920">
        <ele>1.0000000</ele>
        <time>2010-01-01T00:09:05Z</time>
      </trkpt>
      <trkpt lat="53.16174910" lon="8.614293660">
        <ele>1.0000000</ele>
        <time>2010-01-01T00:09:16Z</time>
      </trkpt>
      <trkpt lat="53.16145010" lon="8.613578410">
        <ele>2.0000000</ele>
        <time>2010-01-01T00:09:37Z</time>
      </trkpt>
      <trkpt lat="53.16101520" lon="8.612535350">
        <ele>1.0000000</ele>
        <time>2010-01-01T00:10:08Z</time>
      </trkpt>
      <trkpt lat="53.16073930" lon="8.611999400">
        <ele>1.0000000</ele>
        <time>2010-01-01T00:10:25Z</time>
      </trkpt>
      <trkpt lat="53.16028120" lon="8.611146210">
        <ele>1.0000000</ele>
        <time>2010-01-01T00:10:52Z</time>
      </trkpt>
      <trkpt lat="53.16000790" lon="8.610690230">
        <ele>2.0000000</ele>
        <time>2010-01-01T00:11:08Z</time>
      </trkpt>
      <trkpt lat="53.15985340" lon="8.610481860">
        <ele>3.0000000</ele>
        <time>2010-01-01T00:11:16Z</time>
      </trkpt>
      <trkpt lat="53.15966420" lon="8.610334010">
        <ele>3.0000000</ele>
        <time>2010-01-01T00:11:24Z</time>
      </trkpt>
      <trkpt lat="53.15924570" lon="8.610188240">
        <ele>1.0000000</ele>
        <time>2010-01-01T00:11:41Z</time>
      </trkpt>
      <trkpt lat="53.15815690" lon="8.609869080">
        <ele>1.0000000</ele>
        <time>2010-01-01T00:12:25Z</time>
      </trkpt>
      <trkpt lat="53.15806700" lon="8.609839980">
        <ele>1.0000000</ele>
        <time>2010-01-01T00:12:29Z</time>
      </trkpt>
      <trkpt lat="53.15765340" lon="8.609676360">
        <ele>0.0000000</ele>
        <time>2010-01-01T00:12:46Z</time>
      </trkpt>
      <trkpt lat="53.15669900" lon="8.609343910">
        <ele>-1.000000</ele>
        <time>2010-01-01T00:13:25Z</time>
      </trkpt>
      <trkpt lat="53.15500600" lon="8.609091630">
        <ele>-1.000000</ele>
        <time>2010-01-01T00:14:33Z</time>
      </trkpt>
      <trkpt lat="53.15376110" lon="8.608828780">
        <ele>1.0000000</ele>
        <time>2010-01-01T00:15:23Z</time>
      </trkpt>
      <trkpt lat="53.15158320" lon="8.608286970">
        <ele>1.0000000</ele>
        <time>2010-01-01T00:16:51Z</time>
      </trkpt>
      <trkpt lat="53.15114890" lon="8.608040210">
        <ele>1.0000000</ele>
        <time>2010-01-01T00:17:10Z</time>
      </trkpt>
      <trkpt lat="53.15075650" lon="8.607686160">
        <ele>0.0000000</ele>
        <time>2010-01-01T00:17:28Z</time>
      </trkpt>
      <trkpt lat="53.15029960" lon="8.606956600">
        <ele>-1.000000</ele>
        <time>2010-01-01T00:17:53Z</time>
      </trkpt>
      <trkpt lat="53.14981380" lon="8.605862250">
        <ele>1.0000000</ele>
        <time>2010-01-01T00:18:26Z</time>
      </trkpt>
      <trkpt lat="53.14948050" lon="8.605222690">
        <ele>-1.000000</ele>
        <time>2010-01-01T00:18:46Z</time>
      </trkpt>
      <trkpt lat="53.14942180" lon="8.605133520">
        <ele>-1.000000</ele>
        <time>2010-01-01T00:18:49Z</time>
      </trkpt>
      <trkpt lat="53.14911570" lon="8.604784010">
        <ele>-1.000000</ele>
        <time>2010-01-01T00:19:04Z</time>
      </trkpt>
      <trkpt lat="53.14870010" lon="8.604362610">
        <ele>0.0000000</ele>
        <time>2010-01-01T00:19:24Z</time>
      </trkpt>
      <trkpt lat="53.14809580" lon="8.603770080">
        <ele>1.0000000</ele>
        <time>2010-01-01T00:19:52Z</time>
      </trkpt>
      <trkpt lat="53.14687810" lon="8.602525350">
        <ele>3.0000000</ele>
        <time>2010-01-01T00:20:49Z</time>
      </trkpt>
      <trkpt lat="53.14614740" lon="8.601754620">
        <ele>2.0000000</ele>
        <time>2010-01-01T00:21:23Z</time>
      </trkpt>
      <trkpt lat="53.14600290" lon="8.601546630">
        <ele>1.0000000</ele>
        <time>2010-01-01T00:21:31Z</time>
      </trkpt>
      <trkpt lat="53.14573590" lon="8.601010860">
        <ele>1.0000000</ele>
        <time>2010-01-01T00:21:48Z</time>
      </trkpt>
      <trkpt lat="53.14556370" lon="8.600593820">
        <ele>1.0000000</ele>
        <time>2010-01-01T00:22:00Z</time>
      </trkpt>
      <trkpt lat="53.14518730" lon="8.599580630">
        <ele>-2.000000</ele>
        <time>2010-01-01T00:22:29Z</time>
      </trkpt>
      <trkpt lat="53.14463370" lon="8.598030880">
        <ele>-1.000000</ele>
        <time>2010-01-01T00:23:12Z</time>
      </trkpt>
      <trkpt lat="53.14408470" lon="8.596511030">
        <ele>0.0000000</ele>
        <time>2010-01-01T00:23:54Z</time>
      </trkpt>
      <trkpt lat="53.14384910" lon="8.595945120">
        <ele>0.0000000</ele>
        <time>2010-01-01T00:24:11Z</time>
      </trkpt>
      <trkpt lat="53.14364560" lon="8.595588210">
        <ele>-1.000000</ele>
        <time>2010-01-01T00:24:23Z</time>
      </trkpt>
      <trkpt lat="53.14341960" lon="8.595231520">
        <ele>-2.000000</ele>
        <time>2010-01-01T00:24:35Z</time>
      </trkpt>
      <trkpt lat="53.14327520" lon="8.595053470">
        <ele>-2.000000</ele>
        <time>2010-01-01T00:24:42Z</time>
      </trkpt>
      <trkpt lat="53.14291420" lon="8.594638260">
        <ele>1.0000000</ele>
        <time>2010-01-01T00:25:00Z</time>
      </trkpt>
      <trkpt lat="53.14253560" lon="8.594312920">
        <ele>0.0000000</ele>
        <time>2010-01-01T00:25:17Z</time>
      </trkpt>
      <trkpt lat="53.14227860" lon="8.594081990">
        <ele>-1.000000</ele>
        <time>2010-01-01T00:25:29Z</time>
      </trkpt>
      <trkpt lat="53.14201470" lon="8.594983220">
        <ele>-2.000000</ele>
        <time>2010-01-01T00:25:53Z</time>
      </trkpt>
      <trkpt lat="53.14155130" lon="8.595734230">
        <ele>-1.000000</ele>
        <time>2010-01-01T00:26:19Z</time>
      </trkpt>
      <trkpt lat="53.14026080" lon="8.596815960">
        <ele>0.0000000</ele>
        <time>2010-01-01T00:27:17Z</time>
      </trkpt>
      <trkpt lat="53.13988130" lon="8.597563500">
        <ele>0.0000000</ele>
        <time>2010-01-01T00:27:40Z</time>
      </trkpt>
      <trkpt lat="53.13974930" lon="8.597992650">
        <ele>0.0000000</ele>
        <time>2010-01-01T00:27:52Z</time>
      </trkpt>
      <trkpt lat="53.13903820" lon="8.599419590">
        <ele>2.0000000</ele>
        <time>2010-01-01T00:28:36Z</time>
      </trkpt>
      <trkpt lat="53.13881150" lon="8.600207980">
        <ele>2.0000000</ele>
        <time>2010-01-01T00:28:57Z</time>
      </trkpt>
      <trkpt lat="53.13874510" lon="8.600507580">
        <ele>3.0000000</ele>
        <time>2010-01-01T00:29:05Z</time>
      </trkpt>
      <trkpt lat="53.13846540" lon="8.601989150">
        <ele>1.0000000</ele>
        <time>2010-01-01T00:29:42Z</time>
      </trkpt>
      <trkpt lat="53.13823370" lon="8.602530950">
        <ele>1.0000000</ele>
        <time>2010-01-01T00:29:58Z</time>
      </trkpt>
      <trkpt lat="53.13801810" lon="8.602842090">
        <ele>1.0000000</ele>
        <time>2010-01-01T00:30:10Z</time>
      </trkpt>
      <trkpt lat="53.13762220" lon="8.603024480">
        <ele>2.0000000</ele>
        <time>2010-01-01T00:30:26Z</time>
      </trkpt>
      <trkpt lat="53.13749090" lon="8.603150140">
        <ele>3.0000000</ele>
        <time>2010-01-01T00:30:32Z</time>
      </trkpt>
      <trkpt lat="53.13729460" lon="8.603600400">
        <ele>3.0000000</ele>
        <time>2010-01-01T00:30:45Z</time>
      </trkpt>
      <trkpt lat="53.13704920" lon="8.604140800">
        <ele>1.0000000</ele>
        <time>2010-01-01T00:31:02Z</time>
      </trkpt>
      <trkpt lat="53.13686600" lon="8.604471340">
        <ele>1.0000000</ele>
        <time>2010-01-01T00:31:12Z</time>
      </trkpt>
      <trkpt lat="53.13663810" lon="8.604862090">
        <ele>2.0000000</ele>
        <time>2010-01-01T00:31:26Z</time>
      </trkpt>
      <trkpt lat="53.13649460" lon="8.604953090">
        <ele>2.0000000</ele>
        <time>2010-01-01T00:31:32Z</time>
      </trkpt>
      <trkpt lat="53.13647180" lon="8.604863610">
        <ele>2.0000000</ele>
        <time>2010-01-01T00:31:34Z</time>
      </trkpt>
      <trkpt lat="53.13648300" lon="8.604285120">
        <ele>2.0000000</ele>
        <time>2010-01-01T00:31:48Z</time>
      </trkpt>
      <trkpt lat="53.13648620" lon="8.603716490">
        <ele>2.0000000</ele>
        <time>2010-01-01T00:32:02Z</time>
      </trkpt>
      <trkpt lat="53.13645090" lon="8.602621590">
        <ele>2.0000000</ele>
        <time>2010-01-01T00:32:28Z</time>
      </trkpt>
      <trkpt lat="53.13560020" lon="8.603616000">
        <ele>5.0000000</ele>
        <time>2010-01-01T00:33:10Z</time>
      </trkpt>
      <trkpt lat="53.13539850" lon="8.603936430">
        <ele>5.0000000</ele>
        <time>2010-01-01T00:33:21Z</time>
      </trkpt>
      <trkpt lat="53.13511850" lon="8.604843020">
        <ele>1.0000000</ele>
        <time>2010-01-01T00:33:45Z</time>
      </trkpt>
      <trkpt lat="53.13497690" lon="8.605803250">
        <ele>-1.000000</ele>
        <time>2010-01-01T00:34:09Z</time>
      </trkpt>
      <trkpt lat="53.13481600" lon="8.606216310">
        <ele>-1.000000</ele>
        <time>2010-01-01T00:34:21Z</time>
      </trkpt>
      <trkpt lat="53.13453280" lon="8.606656190">
        <ele>-1.000000</ele>
        <time>2010-01-01T00:34:36Z</time>
      </trkpt>
      <trkpt lat="53.13425920" lon="8.606902950">
        <ele>-2.000000</ele>
        <time>2010-01-01T00:34:49Z</time>
      </trkpt>
      <trkpt lat="53.13395990" lon="8.606999510">
        <ele>-2.000000</ele>
        <time>2010-01-01T00:35:01Z</time>
      </trkpt>
      <trkpt lat="53.13353830" lon="8.606994150">
        <ele>-2.000000</ele>
        <time>2010-01-01T00:35:18Z</time>
      </trkpt>
      <trkpt lat="53.13319390" lon="8.606908320">
        <ele>-1.000000</ele>
        <time>2010-01-01T00:35:32Z</time>
      </trkpt>
      <trkpt lat="53.13280980" lon="8.606571250">
        <ele>0.0000000</ele>
        <time>2010-01-01T00:35:49Z</time>
      </trkpt>
      <trkpt lat="53.13245370" lon="8.605840800">
        <ele>1.0000000</ele>
        <time>2010-01-01T00:36:12Z</time>
      </trkpt>
      <trkpt lat="53.13223980" lon="8.605440520">
        <ele>-1.000000</ele>
        <time>2010-01-01T00:36:25Z</time>
      </trkpt>
      <trkpt lat="53.13182610" lon="8.605100510">
        <ele>-1.000000</ele>
        <time>2010-01-01T00:36:43Z</time>
      </trkpt>
      <trkpt lat="53.13161360" lon="8.605009310">
        <ele>1.0000000</ele>
        <time>2010-01-01T00:36:52Z</time>
      </trkpt>
      <trkpt lat="53.13118240" lon="8.605293630">
        <ele>0.0000000</ele>
        <time>2010-01-01T00:37:10Z</time>
      </trkpt>
      <trkpt lat="53.13096990" lon="8.605556480">
        <ele>1.0000000</ele>
        <time>2010-01-01T00:37:21Z</time>
      </trkpt>
      <trkpt lat="53.13090880" lon="8.605738870">
        <ele>1.0000000</ele>
        <time>2010-01-01T00:37:26Z</time>
      </trkpt>
      <trkpt lat="53.13077680" lon="8.606216310">
        <ele>1.0000000</ele>
        <time>2010-01-01T00:37:39Z</time>
      </trkpt>
      <trkpt lat="53.13073820" lon="8.606731290">
        <ele>1.0000000</ele>
        <time>2010-01-01T00:37:51Z</time>
      </trkpt>
      <trkpt lat="53.13080580" lon="8.607444760">
        <ele>2.0000000</ele>
        <time>2010-01-01T00:38:08Z</time>
      </trkpt>
      <trkpt lat="53.13092170" lon="8.608163590">
        <ele>3.0000000</ele>
        <time>2010-01-01T00:38:26Z</time>
      </trkpt>
      <trkpt lat="53.13114970" lon="8.608798460">
        <ele>2.0000000</ele>
        <time>2010-01-01T00:38:44Z</time>
      </trkpt>
      <trkpt lat="53.13155250" lon="8.609622710">
        <ele>3.0000000</ele>
        <time>2010-01-01T00:39:10Z</time>
      </trkpt>
      <trkpt lat="53.13198380" lon="8.610384460">
        <ele>3.0000000</ele>
        <time>2010-01-01T00:39:35Z</time>
      </trkpt>
      <trkpt lat="53.13206420" lon="8.611242770">
        <ele>2.0000000</ele>
        <time>2010-01-01T00:39:56Z</time>
      </trkpt>
      <trkpt lat="53.13216720" lon="8.612149350">
        <ele>3.0000000</ele>
        <time>2010-01-01T00:40:18Z</time>
      </trkpt>
      <trkpt lat="53.13204170" lon="8.612948650">
        <ele>4.0000000</ele>
        <time>2010-01-01T00:40:38Z</time>
      </trkpt>
      <trkpt lat="53.13212020" lon="8.614200320">
        <ele>1.0000000</ele>
        <time>2010-01-01T00:41:08Z</time>
      </trkpt>
      <trkpt lat="53.13217790" lon="8.615365630">
        <ele>1.0000000</ele>
        <time>2010-01-01T00:41:36Z</time>
      </trkpt>
      <trkpt lat="53.13218980" lon="8.616220950">
        <ele>2.0000000</ele>
        <time>2010-01-01T00:41:56Z</time>
      </trkpt>
      <trkpt lat="53.13212540" lon="8.616811030">
        <ele>3.0000000</ele>
        <time>2010-01-01T00:42:11Z</time>
      </trkpt>
      <trkpt lat="53.13192580" lon="8.617551320">
        <ele>3.0000000</ele>
        <time>2010-01-01T00:42:30Z</time>
      </trkpt>
      <trkpt lat="53.13169090" lon="8.617900010">
        <ele>3.0000000</ele>
        <time>2010-01-01T00:42:43Z</time>
      </trkpt>
      <trkpt lat="53.13152350" lon="8.618077030">
        <ele>2.0000000</ele>
        <time>2010-01-01T00:42:51Z</time>
      </trkpt>
      <trkpt lat="53.13122100" lon="8.618372080">
        <ele>2.0000000</ele>
        <time>2010-01-01T00:43:05Z</time>
      </trkpt>
      <trkpt lat="53.13078330" lon="8.618838780">
        <ele>1.0000000</ele>
        <time>2010-01-01T00:43:26Z</time>
      </trkpt>
      <trkpt lat="53.13019420" lon="8.619670270">
        <ele>1.0000000</ele>
        <time>2010-01-01T00:43:57Z</time>
      </trkpt>
      <trkpt lat="53.13003010" lon="8.619761460">
        <ele>0.0000000</ele>
        <time>2010-01-01T00:44:04Z</time>
      </trkpt>
      <trkpt lat="53.12890030" lon="8.620163790">
        <ele>0.0000000</ele>
        <time>2010-01-01T00:44:50Z</time>
      </trkpt>
      <trkpt lat="53.12839820" lon="8.620657320">
        <ele>0.0000000</ele>
        <time>2010-01-01T00:45:13Z</time>
      </trkpt>
      <trkpt lat="53.12796370" lon="8.621199130">
        <ele>1.0000000</ele>
        <time>2010-01-01T00:45:35Z</time>
      </trkpt>
      <trkpt lat="53.12775120" lon="8.621617550">
        <ele>1.0000000</ele>
        <time>2010-01-01T00:45:48Z</time>
      </trkpt>
      <trkpt lat="53.12759220" lon="8.622042160">
        <ele>1.0000000</ele>
        <time>2010-01-01T00:46:00Z</time>
      </trkpt>
      <trkpt lat="53.12746470" lon="8.622491950">
        <ele>1.0000000</ele>
        <time>2010-01-01T00:46:12Z</time>
      </trkpt>
      <trkpt lat="53.12785960" lon="8.622727290">
        <ele>1.0000000</ele>
        <time>2010-01-01T00:46:29Z</time>
      </trkpt>
      <trkpt lat="53.12839180" lon="8.623033760">
        <ele>2.0000000</ele>
        <time>2010-01-01T00:46:51Z</time>
      </trkpt>
      <trkpt lat="53.12830810" lon="8.623747220">
        <ele>3.0000000</ele>
        <time>2010-01-01T00:47:09Z</time>
      </trkpt>
      <trkpt lat="53.12826950" lon="8.624042270">
        <ele>3.0000000</ele>
        <time>2010-01-01T00:47:16Z</time>
      </trkpt>
      <trkpt lat="53.12833700" lon="8.624348040">
        <ele>2.0000000</ele>
        <time>2010-01-01T00:47:24Z</time>
      </trkpt>
      <trkpt lat="53.12841430" lon="8.624637720">
        <ele>2.0000000</ele>
        <time>2010-01-01T00:47:31Z</time>
      </trkpt>
      <trkpt lat="53.12853660" lon="8.625190250">
        <ele>2.0000000</ele>
        <time>2010-01-01T00:47:46Z</time>
      </trkpt>
      <trkpt lat="53.12867500" lon="8.625973460">
        <ele>3.0000000</ele>
        <time>2010-01-01T00:48:05Z</time>
      </trkpt>
      <trkpt lat="53.12880050" lon="8.626670830">
        <ele>4.0000000</ele>
        <time>2010-01-01T00:48:23Z</time>
      </trkpt>
      <trkpt lat="53.12687890" lon="8.628730770">
        <ele>0.0000000</ele>
        <time>2010-01-01T00:49:54Z</time>
      </trkpt>
      <trkpt lat="53.12536200" lon="8.630340840">
        <ele>2.0000000</ele>
        <time>2010-01-01T00:51:06Z</time>
      </trkpt>
      <trkpt lat="53.12511490" lon="8.630785340">
        <ele>1.0000000</ele>
        <time>2010-01-01T00:51:21Z</time>
      </trkpt>
      <trkpt lat="53.12480850" lon="8.631571000">
        <ele>1.0000000</ele>
        <time>2010-01-01T00:51:43Z</time>
      </trkpt>
      <trkpt lat="53.12436170" lon="8.632882830">
        <ele>2.0000000</ele>
        <time>2010-01-01T00:52:19Z</time>
      </trkpt>
      <trkpt lat="53.12287900" lon="8.635562430">
        <ele>1.0000000</ele>
        <time>2010-01-01T00:53:47Z</time>
      </trkpt>
      <trkpt lat="53.12219840" lon="8.636836400">
        <ele>1.0000000</ele>
        <time>2010-01-01T00:54:28Z</time>
      </trkpt>
      <trkpt lat="53.12099440" lon="8.638955350">
        <ele>3.0000000</ele>
        <time>2010-01-01T00:55:38Z</time>
      </trkpt>
      <trkpt lat="53.12058160" lon="8.639765780">
        <ele>2.0000000</ele>
        <time>2010-01-01T00:56:04Z</time>
      </trkpt>
      <trkpt lat="53.11995450" lon="8.640822170">
        <ele>0.0000000</ele>
        <time>2010-01-01T00:56:39Z</time>
      </trkpt>
      <trkpt lat="53.11879230" lon="8.642742630">
        <ele>0.0000000</ele>
        <time>2010-01-01T00:57:45Z</time>
      </trkpt>
      <trkpt lat="53.11884700" lon="8.642839190">
        <ele>0.0000000</ele>
        <time>2010-01-01T00:57:48Z</time>
      </trkpt>
      <trkpt lat="53.11975810" lon="8.644330500">
        <ele>1.0000000</ele>
        <time>2010-01-01T00:58:39Z</time>
      </trkpt>
      <trkpt lat="53.12034630" lon="8.645236700">
        <ele>-1.000000</ele>
        <time>2010-01-01T00:59:11Z</time>
      </trkpt>
      <trkpt lat="53.12055850" lon="8.645563690">
        <ele>1.0000000</ele>
        <time>2010-01-01T00:59:23Z</time>
      </trkpt>
      <trkpt lat="53.12073460" lon="8.645831210">
        <ele>1.0000000</ele>
        <time>2010-01-01T00:59:32Z</time>
      </trkpt>
      <trkpt lat="53.12082040" lon="8.645950050">
        <ele>2.0000000</ele>
        <time>2010-01-01T00:59:37Z</time>
      </trkpt>
      <trkpt lat="53.12090610" lon="8.646068880">
        <ele>3.0000000</ele>
        <time>2010-01-01T00:59:41Z</time>
      </trkpt>
      <trkpt lat="53.12112260" lon="8.646306190">
        <ele>4.0000000</ele>
        <time>2010-01-01T00:59:52Z</time>
      </trkpt>
      <trkpt lat="53.12135240" lon="8.646513500">
        <ele>4.0000000</ele>
        <time>2010-01-01T01:00:02Z</time>
      </trkpt>
      <trkpt lat="53.12173080" lon="8.646779370">
        <ele>3.0000000</ele>
        <time>2010-01-01T01:00:19Z</time>
      </trkpt>
      <trkpt lat="53.12210880" lon="8.646955590">
        <ele>3.0000000</ele>
        <time>2010-01-01T01:00:34Z</time>
      </trkpt>
      <trkpt lat="53.12241470" lon="8.647042740">
        <ele>5.0000000</ele>
        <time>2010-01-01T01:00:47Z</time>
      </trkpt>
      <trkpt lat="53.12305820" lon="8.647306450">
        <ele>6.0000000</ele>
        <time>2010-01-01T01:01:13Z</time>
      </trkpt>
      <trkpt lat="53.12305790" lon="8.647559880">
        <ele>5.0000000</ele>
        <time>2010-01-01T01:01:19Z</time>
      </trkpt>
      <trkpt lat="53.12318020" lon="8.648654220">
        <ele>2.0000000</ele>
        <time>2010-01-01T01:01:46Z</time>
      </trkpt>
      <trkpt lat="53.12333150" lon="8.649678820">
        <ele>3.0000000</ele>
        <time>2010-01-01T01:02:11Z</time>
      </trkpt>
      <trkpt lat="53.12343130" lon="8.650354740">
        <ele>3.0000000</ele>
        <time>2010-01-01T01:02:28Z</time>
      </trkpt>
      <trkpt lat="53.12342980" lon="8.651368060">
        <ele>3.0000000</ele>
        <time>2010-01-01T01:02:52Z</time>
      </trkpt>
      <trkpt lat="53.12332740" lon="8.651697650">
        <ele>3.0000000</ele>
        <time>2010-01-01T01:03:01Z</time>
      </trkpt>
      <trkpt lat="53.12331840" lon="8.651697720">
        <ele>3.0000000</ele>
        <time>2010-01-01T01:03:02Z</time>
      </trkpt>
      <trkpt lat="53.12321880" lon="8.652037790">
        <ele>2.0000000</ele>
        <time>2010-01-01T01:03:11Z</time>
      </trkpt>
      <trkpt lat="53.12331840" lon="8.651697720">
        <ele>3.0000000</ele>
        <time>2010-01-01T01:03:20Z</time>
      </trkpt>
      <trkpt lat="53.12332740" lon="8.651697650">
        <ele>3.0000000</ele>
        <time>2010-01-01T01:03:20Z</time>
      </trkpt>
      <trkpt lat="53.12203420" lon="8.655960550">
        <ele>4.0000000</ele>
        <time>2010-01-01T01:05:15Z</time>
      </trkpt>
      <trkpt lat="53.12167360" lon="8.657366030">
        <ele>4.0000000</ele>
        <time>2010-01-01T01:05:52Z</time>
      </trkpt>
      <trkpt lat="53.12161570" lon="8.657752270">
        <ele>3.0000000</ele>
        <time>2010-01-01T01:06:01Z</time>
      </trkpt>
      <trkpt lat="53.12153640" lon="8.658735280">
        <ele>3.0000000</ele>
        <time>2010-01-01T01:06:25Z</time>
      </trkpt>
      <trkpt lat="53.12151910" lon="8.658900260">
        <ele>4.0000000</ele>
        <time>2010-01-01T01:06:29Z</time>
      </trkpt>
      <trkpt lat="53.12101940" lon="8.658679610">
        <ele>3.0000000</ele>
        <time>2010-01-01T01:06:50Z</time>
      </trkpt>
      <trkpt lat="53.12061880" lon="8.658503470">
        <ele>2.0000000</ele>
        <time>2010-01-01T01:07:06Z</time>
      </trkpt>
      <trkpt lat="53.12030850" lon="8.658416270">
        <ele>0.0000000</ele>
        <time>2010-01-01T01:07:19Z</time>
      </trkpt>
      <trkpt lat="53.12002900" lon="8.658149530">
        <ele>-1.000000</ele>
        <time>2010-01-01T01:07:32Z</time>
      </trkpt>
      <trkpt lat="53.11863860" lon="8.657592770">
        <ele>2.0000000</ele>
        <time>2010-01-01T01:08:29Z</time>
      </trkpt>
      <trkpt lat="53.11824270" lon="8.657476380">
        <ele>3.0000000</ele>
        <time>2010-01-01T01:08:45Z</time>
      </trkpt>
      <trkpt lat="53.11820630" lon="8.657408950">
        <ele>3.0000000</ele>
        <time>2010-01-01T01:08:47Z</time>
      </trkpt>
      <trkpt lat="53.11786830" lon="8.657526960">
        <ele>2.0000000</ele>
        <time>2010-01-01T01:09:01Z</time>
      </trkpt>
      <trkpt lat="53.11763970" lon="8.657575240">
        <ele>2.0000000</ele>
        <time>2010-01-01T01:09:10Z</time>
      </trkpt>
      <trkpt lat="53.11750110" lon="8.657482270">
        <ele>1.0000000</ele>
        <time>2010-01-01T01:09:16Z</time>
      </trkpt>
      <trkpt lat="53.11741430" lon="8.657301660">
        <ele>1.0000000</ele>
        <time>2010-01-01T01:09:22Z</time>
      </trkpt>
      <trkpt lat="53.11725190" lon="8.656796950">
        <ele>1.0000000</ele>
        <time>2010-01-01T01:09:36Z</time>
      </trkpt>
      <trkpt lat="53.11711180" lon="8.656529120">
        <ele>2.0000000</ele>
        <time>2010-01-01T01:09:44Z</time>
      </trkpt>
      <trkpt lat="53.11658040" lon="8.656089300">
        <ele>3.0000000</ele>
        <time>2010-01-01T01:10:08Z</time>
      </trkpt>
      <trkpt lat="53.11527650" lon="8.655359740">
        <ele>3.0000000</ele>
        <time>2010-01-01T01:11:03Z</time>
      </trkpt>
      <trkpt lat="53.11454880" lon="8.655027150">
        <ele>3.0000000</ele>
        <time>2010-01-01T01:11:33Z</time>
      </trkpt>
      <trkpt lat="53.11360860" lon="8.654694550">
        <ele>1.0000000</ele>
        <time>2010-01-01T01:12:12Z</time>
      </trkpt>
      <trkpt lat="53.11326080" lon="8.654683820">
        <ele>0.0000000</ele>
        <time>2010-01-01T01:12:26Z</time>
      </trkpt>
      <trkpt lat="53.11275210" lon="8.654469250">
        <ele>0.0000000</ele>
        <time>2010-01-01T01:12:47Z</time>
      </trkpt>
      <trkpt lat="53.11168310" lon="8.654002540">
        <ele>2.0000000</ele>
        <time>2010-01-01T01:13:31Z</time>
      </trkpt>
      <trkpt lat="53.11073310" lon="8.654093740">
        <ele>1.0000000</ele>
        <time>2010-01-01T01:14:09Z</time>
      </trkpt>
      <trkpt lat="53.10999250" lon="8.654007910">
        <ele>1.0000000</ele>
        <time>2010-01-01T01:14:39Z</time>
      </trkpt>
      <trkpt lat="53.10962540" lon="8.654302950">
        <ele>1.0000000</ele>
        <time>2010-01-01T01:14:55Z</time>
      </trkpt>
      <trkpt lat="53.10920950" lon="8.654709820">
        <ele>1.0000000</ele>
        <time>2010-01-01T01:15:14Z</time>
      </trkpt>
      <trkpt lat="53.10910680" lon="8.654949660">
        <ele>1.0000000</ele>
        <time>2010-01-01T01:15:21Z</time>
      </trkpt>
      <trkpt lat="53.10908890" lon="8.654979680">
        <ele>1.0000000</ele>
        <time>2010-01-01T01:15:22Z</time>
      </trkpt>
      <trkpt lat="53.10898140" lon="8.655100050">
        <ele>1.0000000</ele>
        <time>2010-01-01T01:15:28Z</time>
      </trkpt>
      <trkpt lat="53.10889170" lon="8.655190390">
        <ele>1.0000000</ele>
        <time>2010-01-01T01:15:32Z</time>
      </trkpt>
      <trkpt lat="53.10874950" lon="8.655220270">
        <ele>2.0000000</ele>
        <time>2010-01-01T01:15:38Z</time>
      </trkpt>
      <trkpt lat="53.10857880" lon="8.655418750">
        <ele>1.0000000</ele>
        <time>2010-01-01T01:15:46Z</time>
      </trkpt>
      <trkpt lat="53.10748390" lon="8.658095590">
        <ele>1.0000000</ele>
        <time>2010-01-01T01:17:04Z</time>
      </trkpt>
      <trkpt lat="53.10668530" lon="8.660246720">
        <ele>1.0000000</ele>
        <time>2010-01-01T01:18:05Z</time>
      </trkpt>
      <trkpt lat="53.10627950" lon="8.661298150">
        <ele>2.0000000</ele>
        <time>2010-01-01T01:18:35Z</time>
      </trkpt>
      <trkpt lat="53.10556460" lon="8.663170330">
        <ele>0.0000000</ele>
        <time>2010-01-01T01:19:28Z</time>
      </trkpt>
      <trkpt lat="53.10360000" lon="8.668325540">
        <ele>2.0000000</ele>
        <time>2010-01-01T01:21:55Z</time>
      </trkpt>
      <trkpt lat="53.10330690" lon="8.669183850">
        <ele>2.0000000</ele>
        <time>2010-01-01T01:22:18Z</time>
      </trkpt>
      <trkpt lat="53.10317810" lon="8.669843670">
        <ele>1.0000000</ele>
        <time>2010-01-01T01:22:35Z</time>
      </trkpt>
      <trkpt lat="53.10294620" lon="8.670610780">
        <ele>1.0000000</ele>
        <time>2010-01-01T01:22:56Z</time>
      </trkpt>
      <trkpt lat="53.10269500" lon="8.671200870">
        <ele>0.0000000</ele>
        <time>2010-01-01T01:23:13Z</time>
      </trkpt>
      <trkpt lat="53.10256870" lon="8.671402060">
        <ele>0.0000000</ele>
        <time>2010-01-01T01:23:20Z</time>
      </trkpt>
      <trkpt lat="53.10256420" lon="8.671402090">
        <ele>0.0000000</ele>
        <time>2010-01-01T01:23:20Z</time>
      </trkpt>
      <trkpt lat="53.10234720" lon="8.671522730">
        <ele>-1.000000</ele>
        <time>2010-01-01T01:23:29Z</time>
      </trkpt>
      <trkpt lat="53.10226830" lon="8.671703070">
        <ele>-1.000000</ele>
        <time>2010-01-01T01:23:35Z</time>
      </trkpt>
      <trkpt lat="53.10182860" lon="8.671265240">
        <ele>3.0000000</ele>
        <time>2010-01-01T01:23:55Z</time>
      </trkpt>
      <trkpt lat="53.10006110" lon="8.669957490">
        <ele>0.0000000</ele>
        <time>2010-01-01T01:25:13Z</time>
      </trkpt>
      <trkpt lat="53.09948450" lon="8.669483980">
        <ele>2.0000000</ele>
        <time>2010-01-01T01:25:38Z</time>
      </trkpt>
      <trkpt lat="53.09916020" lon="8.669247500">
        <ele>4.0000000</ele>
        <time>2010-01-01T01:25:53Z</time>
      </trkpt>
      <trkpt lat="53.09785420" lon="8.668331570">
        <ele>2.0000000</ele>
        <time>2010-01-01T01:26:49Z</time>
      </trkpt>
      <trkpt lat="53.09753890" lon="8.668095040">
        <ele>1.0000000</ele>
        <time>2010-01-01T01:27:03Z</time>
      </trkpt>
      <trkpt lat="53.09641420" lon="8.667601340">
        <ele>2.0000000</ele>
        <time>2010-01-01T01:27:50Z</time>
      </trkpt>
      <trkpt lat="53.09588590" lon="8.667408220">
        <ele>2.0000000</ele>
        <time>2010-01-01T01:28:11Z</time>
      </trkpt>
      <trkpt lat="53.09429900" lon="8.666746090">
        <ele>4.0000000</ele>
        <time>2010-01-01T01:29:17Z</time>
      </trkpt>
      <trkpt lat="53.09438360" lon="8.666446770">
        <ele>5.0000000</ele>
        <time>2010-01-01T01:29:25Z</time>
      </trkpt>
      <trkpt lat="53.09444130" lon="8.666207390">
        <ele>5.0000000</ele>
        <time>2010-01-01T01:29:31Z</time>
      </trkpt>
      <trkpt lat="53.09453760" lon="8.665280760">
        <ele>4.0000000</ele>
        <time>2010-01-01T01:29:54Z</time>
      </trkpt>
      <trkpt lat="53.09461230" lon="8.664652970">
        <ele>3.0000000</ele>
        <time>2010-01-01T01:30:09Z</time>
      </trkpt>
      <trkpt lat="53.09478770" lon="8.663128380">
        <ele>1.0000000</ele>
        <time>2010-01-01T01:30:46Z</time>
      </trkpt>
      <trkpt lat="53.09485330" lon="8.662470790">
        <ele>2.0000000</ele>
        <time>2010-01-01T01:31:02Z</time>
      </trkpt>
      <trkpt lat="53.09490580" lon="8.661962630">
        <ele>2.0000000</ele>
        <time>2010-01-01T01:31:15Z</time>
      </trkpt>
      <trkpt lat="53.09488780" lon="8.661962770">
        <ele>2.0000000</ele>
        <time>2010-01-01T01:31:15Z</time>
      </trkpt>
      <trkpt lat="53.09426180" lon="8.661519670">
        <ele>0.0000000</ele>
        <time>2010-01-01T01:31:43Z</time>
      </trkpt>
      <trkpt lat="53.09405990" lon="8.661640730">
        <ele>0.0000000</ele>
        <time>2010-01-01T01:31:51Z</time>
      </trkpt>
      <trkpt lat="53.09391160" lon="8.661641890">
        <ele>0.0000000</ele>
        <time>2010-01-01T01:31:57Z</time>
      </trkpt>
      <trkpt lat="53.09338050" lon="8.661407130">
        <ele>0.0000000</ele>
        <time>2010-01-01T01:32:19Z</time>
      </trkpt>
      <trkpt lat="53.09205140" lon="8.660282680">
        <ele>2.0000000</ele>
        <time>2010-01-01T01:33:19Z</time>
      </trkpt>
      <trkpt lat="53.09193000" lon="8.660253770">
        <ele>3.0000000</ele>
        <time>2010-01-01T01:33:24Z</time>
      </trkpt>
      <trkpt lat="53.09188990" lon="8.660403410">
        <ele>3.0000000</ele>
        <time>2010-01-01T01:33:28Z</time>
      </trkpt>
      <trkpt lat="53.09182980" lon="8.661389430">
        <ele>1.0000000</ele>
        <time>2010-01-01T01:33:52Z</time>
      </trkpt>
      <trkpt lat="53.09169450" lon="8.661675320">
        <ele>0.0000000</ele>
        <time>2010-01-01T01:34:00Z</time>
      </trkpt>
      <trkpt lat="53.09158850" lon="8.661899030">
        <ele>1.0000000</ele>
        <time>2010-01-01T01:34:07Z</time>
      </trkpt>
      <trkpt lat="53.09144100" lon="8.662168970">
        <ele>1.0000000</ele>
        <time>2010-01-01T01:34:16Z</time>
      </trkpt>
      <trkpt lat="53.09108600" lon="8.662526600">
        <ele>2.0000000</ele>
        <time>2010-01-01T01:34:33Z</time>
      </trkpt>
      <trkpt lat="53.09083060" lon="8.662472400">
        <ele>1.0000000</ele>
        <time>2010-01-01T01:34:43Z</time>
      </trkpt>
      <trkpt lat="53.09034060" lon="8.662446370">
        <ele>1.0000000</ele>
        <time>2010-01-01T01:35:03Z</time>
      </trkpt>
      <trkpt lat="53.08956930" lon="8.663079540">
        <ele>3.0000000</ele>
        <time>2010-01-01T01:35:37Z</time>
      </trkpt>
      <trkpt lat="53.08944040" lon="8.663588230">
        <ele>2.0000000</ele>
        <time>2010-01-01T01:35:50Z</time>
      </trkpt>
      <trkpt lat="53.08909110" lon="8.664038900">
        <ele>0.0000000</ele>
        <time>2010-01-01T01:36:08Z</time>
      </trkpt>
      <trkpt lat="53.08863800" lon="8.664341060">
        <ele>1.0000000</ele>
        <time>2010-01-01T01:36:27Z</time>
      </trkpt>
      <trkpt lat="53.08838200" lon="8.664432640">
        <ele>1.0000000</ele>
        <time>2010-01-01T01:36:38Z</time>
      </trkpt>
      <trkpt lat="53.08792820" lon="8.664495890">
        <ele>1.0000000</ele>
        <time>2010-01-01T01:36:56Z</time>
      </trkpt>
      <trkpt lat="53.08720070" lon="8.664710590">
        <ele>2.0000000</ele>
        <time>2010-01-01T01:37:26Z</time>
      </trkpt>
      <trkpt lat="53.08539130" lon="8.665411440">
        <ele>0.0000000</ele>
        <time>2010-01-01T01:38:40Z</time>
      </trkpt>
      <trkpt lat="53.08522620" lon="8.665403950">
        <ele>0.0000000</ele>
        <time>2010-01-01T01:38:47Z</time>
      </trkpt>
      <trkpt lat="53.08482940" lon="8.665385940">
        <ele>0.0000000</ele>
        <time>2010-01-01T01:39:03Z</time>
      </trkpt>
      <trkpt lat="53.08403870" lon="8.665511510">
        <ele>2.0000000</ele>
        <time>2010-01-01T01:39:34Z</time>
      </trkpt>
      <trkpt lat="53.08337970" lon="8.666113810">
        <ele>3.0000000</ele>
        <time>2010-01-01T01:40:04Z</time>
      </trkpt>
      <trkpt lat="53.08325850" lon="8.666174460">
        <ele>3.0000000</ele>
        <time>2010-01-01T01:40:10Z</time>
      </trkpt>
      <trkpt lat="53.08306980" lon="8.666205780">
        <ele>3.0000000</ele>
        <time>2010-01-01T01:40:17Z</time>
      </trkpt>
      <trkpt lat="53.08220610" lon="8.665943740">
        <ele>0.0000000</ele>
        <time>2010-01-01T01:40:52Z</time>
      </trkpt>
      <trkpt lat="53.08213860" lon="8.665914400">
        <ele>0.0000000</ele>
        <time>2010-01-01T01:40:55Z</time>
      </trkpt>
      <trkpt lat="53.08195100" lon="8.666333870">
        <ele>0.0000000</ele>
        <time>2010-01-01T01:41:08Z</time>
      </trkpt>
      <trkpt lat="53.08184560" lon="8.666474810">
        <ele>1.0000000</ele>
        <time>2010-01-01T01:41:13Z</time>
      </trkpt>
      <trkpt lat="53.08172640" lon="8.666365470">
        <ele>2.0000000</ele>
        <time>2010-01-01T01:41:18Z</time>
      </trkpt>
      <trkpt lat="53.08156400" lon="8.666157710">
        <ele>3.0000000</ele>
        <time>2010-01-01T01:41:27Z</time>
      </trkpt>
      <trkpt lat="53.08138820" lon="8.665979930">
        <ele>3.0000000</ele>
        <time>2010-01-01T01:41:35Z</time>
      </trkpt>
      <trkpt lat="53.08117220" lon="8.665892030">
        <ele>2.0000000</ele>
        <time>2010-01-01T01:41:44Z</time>
      </trkpt>
      <trkpt lat="53.08095170" lon="8.665804160">
        <ele>2.0000000</ele>
        <time>2010-01-01T01:41:53Z</time>
      </trkpt>
      <trkpt lat="53.08073990" lon="8.665596800">
        <ele>2.0000000</ele>
        <time>2010-01-01T01:42:03Z</time>
      </trkpt>
      <trkpt lat="53.08015060" lon="8.664865490">
        <ele>4.0000000</ele>
        <time>2010-01-01T01:42:32Z</time>
      </trkpt>
      <trkpt lat="53.07978970" lon="8.664264670">
        <ele>4.0000000</ele>
        <time>2010-01-01T01:42:53Z</time>
      </trkpt>
      <trkpt lat="53.07937340" lon="8.663965270">
        <ele>5.0000000</ele>
        <time>2010-01-01T01:43:11Z</time>
      </trkpt>
      <trkpt lat="53.07869410" lon="8.664178840">
        <ele>6.0000000</ele>
        <time>2010-01-01T01:43:38Z</time>
      </trkpt>
      <trkpt lat="53.07781640" lon="8.664902920">
        <ele>7.0000000</ele>
        <time>2010-01-01T01:44:18Z</time>
      </trkpt>
      <trkpt lat="53.07691520" lon="8.665541410">
        <ele>8.0000000</ele>
        <time>2010-01-01T01:44:57Z</time>
      </trkpt>
      <trkpt lat="53.07731080" lon="8.667325110">
        <ele>9.0000000</ele>
        <time>2010-01-01T01:45:43Z</time>
      </trkpt>
      <trkpt lat="53.07767980" lon="8.669083740">
        <ele>8.0000000</ele>
        <time>2010-01-01T01:46:27Z</time>
      </trkpt>
      <trkpt lat="53.07777980" lon="8.669500940">
        <ele>7.0000000</ele>
        <time>2010-01-01T01:46:38Z</time>
      </trkpt>
      <trkpt lat="53.07792070" lon="8.670004600">
        <ele>8.0000000</ele>
        <time>2010-01-01T01:46:52Z</time>
      </trkpt>
      <trkpt lat="53.07767580" lon="8.670948740">
        <ele>8.0000000</ele>
        <time>2010-01-01T01:47:16Z</time>
      </trkpt>
      <trkpt lat="53.07729880" lon="8.671116810">
        <ele>8.0000000</ele>
        <time>2010-01-01T01:47:32Z</time>
      </trkpt>
      <trkpt lat="53.07675410" lon="8.671334980">
        <ele>8.0000000</ele>
        <time>2010-01-01T01:47:54Z</time>
      </trkpt>
      <trkpt lat="53.07563870" lon="8.672174340">
        <ele>5.0000000</ele>
        <time>2010-01-01T01:48:43Z</time>
      </trkpt>
      <trkpt lat="53.07428870" lon="8.673199600">
        <ele>6.0000000</ele>
        <time>2010-01-01T01:49:43Z</time>
      </trkpt>
      <trkpt lat="53.07408570" lon="8.673416370">
        <ele>5.0000000</ele>
        <time>2010-01-01T01:49:52Z</time>
      </trkpt>
      <trkpt lat="53.07376980" lon="8.674070830">
        <ele>5.0000000</ele>
        <time>2010-01-01T01:50:13Z</time>
      </trkpt>
      <trkpt lat="53.07360120" lon="8.674936260">
        <ele>5.0000000</ele>
        <time>2010-01-01T01:50:34Z</time>
      </trkpt>
      <trkpt lat="53.07357370" lon="8.675406980">
        <ele>4.0000000</ele>
        <time>2010-01-01T01:50:46Z</time>
      </trkpt>
      <trkpt lat="53.07360120" lon="8.674936260">
        <ele>5.0000000</ele>
        <time>2010-01-01T01:50:57Z</time>
      </trkpt>
      <trkpt lat="53.07355110" lon="8.676339700">
        <ele>4.0000000</ele>
        <time>2010-01-01T01:51:31Z</time>
      </trkpt>
      <trkpt lat="53.07344070" lon="8.677056990">
        <ele>5.0000000</ele>
        <time>2010-01-01T01:51:49Z</time>
      </trkpt>
      <trkpt lat="53.07321780" lon="8.677745260">
        <ele>6.0000000</ele>
        <time>2010-01-01T01:52:08Z</time>
      </trkpt>
      <trkpt lat="53.07292810" lon="8.678642990">
        <ele>6.0000000</ele>
        <time>2010-01-01T01:52:32Z</time>
      </trkpt>
      <trkpt lat="53.07282560" lon="8.678972120">
        <ele>6.0000000</ele>
        <time>2010-01-01T01:52:41Z</time>
      </trkpt>
      <trkpt lat="53.07270150" lon="8.679599940">
        <ele>6.0000000</ele>
        <time>2010-01-01T01:52:57Z</time>
      </trkpt>
      <trkpt lat="53.07259980" lon="8.680227580">
        <ele>6.0000000</ele>
        <time>2010-01-01T01:53:13Z</time>
      </trkpt>
      <trkpt lat="53.07250260" lon="8.680885040">
        <ele>5.0000000</ele>
        <time>2010-01-01T01:53:29Z</time>
      </trkpt>
      <trkpt lat="53.07242340" lon="8.681512510">
        <ele>4.0000000</ele>
        <time>2010-01-01T01:53:44Z</time>
      </trkpt>
      <trkpt lat="53.07241230" lon="8.682408150">
        <ele>3.0000000</ele>
        <time>2010-01-01T01:54:06Z</time>
      </trkpt>
      <trkpt lat="53.07241320" lon="8.682736510">
        <ele>4.0000000</ele>
        <time>2010-01-01T01:54:14Z</time>
      </trkpt>
      <trkpt lat="53.07244990" lon="8.684706460">
        <ele>7.0000000</ele>
        <time>2010-01-01T01:55:01Z</time>
      </trkpt>
      <trkpt lat="53.07251660" lon="8.686138860">
        <ele>3.0000000</ele>
        <time>2010-01-01T01:55:36Z</time>
      </trkpt>
      <trkpt lat="53.07262890" lon="8.687868110">
        <ele>5.0000000</ele>
        <time>2010-01-01T01:56:17Z</time>
      </trkpt>
      <trkpt lat="53.07253220" lon="8.688147060">
        <ele>5.0000000</ele>
        <time>2010-01-01T01:56:25Z</time>
      </trkpt>
      <trkpt lat="53.07191130" lon="8.688411960">
        <ele>7.0000000</ele>
        <time>2010-01-01T01:56:51Z</time>
      </trkpt>
      <trkpt lat="53.06991510" lon="8.689101930">
        <ele>4.0000000</ele>
        <time>2010-01-01T01:58:13Z</time>
      </trkpt>
      <trkpt lat="53.06942670" lon="8.688758240">
        <ele>4.0000000</ele>
        <time>2010-01-01T01:58:34Z</time>
      </trkpt>
      <trkpt lat="53.06812940" lon="8.688061230">
        <ele>6.0000000</ele>
        <time>2010-01-01T01:59:28Z</time>
      </trkpt>
      <trkpt lat="53.06779420" lon="8.687868110">
        <ele>5.0000000</ele>
        <time>2010-01-01T01:59:42Z</time>
      </trkpt>
      <trkpt lat="53.06754930" lon="8.687577840">
        <ele>5.0000000</ele>
        <time>2010-01-01T01:59:55Z</time>
      </trkpt>
      <trkpt lat="53.06702060" lon="8.688208480">
        <ele>6.0000000</ele>
        <time>2010-01-01T02:00:21Z</time>
      </trkpt>
      <trkpt lat="53.06661790" lon="8.688927730">
        <ele>7.0000000</ele>
        <time>2010-01-01T02:00:44Z</time>
      </trkpt>
      <trkpt lat="53.06591920" lon="8.689858030">
        <ele>7.0000000</ele>
        <time>2010-01-01T02:01:20Z</time>
      </trkpt>
      <trkpt lat="53.06560130" lon="8.690337870">
        <ele>6.0000000</ele>
        <time>2010-01-01T02:01:37Z</time>
      </trkpt>
      <trkpt lat="53.06482730" lon="8.691561660">
        <ele>6.0000000</ele>
        <time>2010-01-01T02:02:20Z</time>
      </trkpt>
      <trkpt lat="53.06455830" lon="8.691986890">
        <ele>6.0000000</ele>
        <time>2010-01-01T02:02:35Z</time>
      </trkpt>
      <trkpt lat="53.06486260" lon="8.693178580">
        <ele>5.0000000</ele>
        <time>2010-01-01T02:03:06Z</time>
      </trkpt>
      <trkpt lat="53.06503060" lon="8.693863860">
        <ele>5.0000000</ele>
        <time>2010-01-01T02:03:24Z</time>
      </trkpt>
      <trkpt lat="53.06528610" lon="8.695324540">
        <ele>3.0000000</ele>
        <time>2010-01-01T02:04:00Z</time>
      </trkpt>
      <trkpt lat="53.06545870" lon="8.696039650">
        <ele>3.0000000</ele>
        <time>2010-01-01T02:04:19Z</time>
      </trkpt>
      <trkpt lat="53.06589200" lon="8.696752940">
        <ele>3.0000000</ele>
        <time>2010-01-01T02:04:43Z</time>
      </trkpt>
      <trkpt lat="53.06635010" lon="8.697352400">
        <ele>2.0000000</ele>
        <time>2010-01-01T02:05:07Z</time>
      </trkpt>
      <trkpt lat="53.06667250" lon="8.697996130">
        <ele>3.0000000</ele>
        <time>2010-01-01T02:05:27Z</time>
      </trkpt>
      <trkpt lat="53.06703990" lon="8.699562540">
        <ele>2.0000000</ele>
        <time>2010-01-01T02:06:07Z</time>
      </trkpt>
      <trkpt lat="53.06741390" lon="8.701150410">
        <ele>2.0000000</ele>
        <time>2010-01-01T02:06:48Z</time>
      </trkpt>
      <trkpt lat="53.06820030" lon="8.704004280">
        <ele>5.0000000</ele>
        <time>2010-01-01T02:08:04Z</time>
      </trkpt>
      <trkpt lat="53.06854200" lon="8.705356120">
        <ele>5.0000000</ele>
        <time>2010-01-01T02:08:39Z</time>
      </trkpt>
      <trkpt lat="53.06913210" lon="8.707296890">
        <ele>5.0000000</ele>
        <time>2010-01-01T02:09:31Z</time>
      </trkpt>
      <trkpt lat="53.06946620" lon="8.709742300">
        <ele>5.0000000</ele>
        <time>2010-01-01T02:10:32Z</time>
      </trkpt>
      <trkpt lat="53.06953830" lon="8.709801510">
        <ele>5.0000000</ele>
        <time>2010-01-01T02:10:35Z</time>
      </trkpt>
      <trkpt lat="53.06968220" lon="8.709860240">
        <ele>4.0000000</ele>
        <time>2010-01-01T02:10:41Z</time>
      </trkpt>
      <trkpt lat="53.06987570" lon="8.709948490">
        <ele>2.0000000</ele>
        <time>2010-01-01T02:10:49Z</time>
      </trkpt>
      <trkpt lat="53.06995430" lon="8.710843470">
        <ele>2.0000000</ele>
        <time>2010-01-01T02:11:11Z</time>
      </trkpt>
      <trkpt lat="53.06999660" lon="8.711589430">
        <ele>0.0000000</ele>
        <time>2010-01-01T02:11:29Z</time>
      </trkpt>
      <trkpt lat="53.07008440" lon="8.713381900">
        <ele>2.0000000</ele>
        <time>2010-01-01T02:12:12Z</time>
      </trkpt>
      <trkpt lat="53.07012780" lon="8.714046470">
        <ele>3.0000000</ele>
        <time>2010-01-01T02:12:28Z</time>
      </trkpt>
      <trkpt lat="53.06854790" lon="8.714733260">
        <ele>3.0000000</ele>
        <time>2010-01-01T02:13:33Z</time>
      </trkpt>
      <trkpt lat="53.06709340" lon="8.715489070">
        <ele>4.0000000</ele>
        <time>2010-01-01T02:14:34Z</time>
      </trkpt>
      <trkpt lat="53.06697660" lon="8.715519690">
        <ele>4.0000000</ele>
        <time>2010-01-01T02:14:39Z</time>
      </trkpt>
      <trkpt lat="53.06564740" lon="8.716042040">
        <ele>6.0000000</ele>
        <time>2010-01-01T02:15:34Z</time>
      </trkpt>
      <trkpt lat="53.06510590" lon="8.716299530">
        <ele>7.0000000</ele>
        <time>2010-01-01T02:15:56Z</time>
      </trkpt>
      <trkpt lat="53.06228450" lon="8.717550200">
        <ele>4.0000000</ele>
        <time>2010-01-01T02:17:53Z</time>
      </trkpt>
      <trkpt lat="53.06038520" lon="8.718368390">
        <ele>7.0000000</ele>
        <time>2010-01-01T02:19:12Z</time>
      </trkpt>
      <trkpt lat="53.05959940" lon="8.718701790">
        <ele>7.0000000</ele>
        <time>2010-01-01T02:19:44Z</time>
      </trkpt>
      <trkpt lat="53.05965780" lon="8.719099760">
        <ele>7.0000000</ele>
        <time>2010-01-01T02:19:54Z</time>
      </trkpt>
      <trkpt lat="53.05999310" lon="8.718981740">
        <ele>7.0000000</ele>
        <time>2010-01-01T02:20:08Z</time>
      </trkpt>
      <trkpt lat="53.06015430" lon="8.720108270">
        <ele>5.0000000</ele>
        <time>2010-01-01T02:20:36Z</time>
      </trkpt>
      <trkpt lat="53.06021870" lon="8.721309900">
        <ele>6.0000000</ele>
        <time>2010-01-01T02:21:05Z</time>
      </trkpt>
      <trkpt lat="53.06030900" lon="8.722608080">
        <ele>6.0000000</ele>
        <time>2010-01-01T02:21:36Z</time>
      </trkpt>
      <trkpt lat="53.06015430" lon="8.722726100">
        <ele>5.0000000</ele>
        <time>2010-01-01T02:21:43Z</time>
      </trkpt>
      <trkpt lat="53.05968360" lon="8.722822660">
        <ele>3.0000000</ele>
        <time>2010-01-01T02:22:02Z</time>
      </trkpt>
      <trkpt lat="53.05981120" lon="8.724698860">
        <ele>5.0000000</ele>
        <time>2010-01-01T02:22:47Z</time>
      </trkpt>
      <trkpt lat="53.05978670" lon="8.725022070">
        <ele>5.0000000</ele>
        <time>2010-01-01T02:22:55Z</time>
      </trkpt>
      <trkpt lat="53.05986410" lon="8.725376120">
        <ele>5.0000000</ele>
        <time>2010-01-01T02:23:04Z</time>
      </trkpt>
      <trkpt lat="53.05999190" lon="8.727055310">
        <ele>4.0000000</ele>
        <time>2010-01-01T02:23:45Z</time>
      </trkpt>
      <trkpt lat="53.06072890" lon="8.726961120">
        <ele>4.0000000</ele>
        <time>2010-01-01T02:24:14Z</time>
      </trkpt>
      <trkpt lat="53.06085920" lon="8.726960300">
        <ele>4.0000000</ele>
        <time>2010-01-01T02:24:20Z</time>
      </trkpt>
      <trkpt lat="53.06112470" lon="8.727078000">
        <ele>4.0000000</ele>
        <time>2010-01-01T02:24:31Z</time>
      </trkpt>
      <trkpt lat="53.06136640" lon="8.727178570">
        <ele>4.0000000</ele>
        <time>2010-01-01T02:24:41Z</time>
      </trkpt>
      <trkpt lat="53.06142810" lon="8.728090780">
        <ele>4.0000000</ele>
        <time>2010-01-01T02:25:03Z</time>
      </trkpt>
      <trkpt lat="53.06147600" lon="8.729217050">
        <ele>3.0000000</ele>
        <time>2010-01-01T02:25:30Z</time>
      </trkpt>
      <trkpt lat="53.06159900" lon="8.730089270">
        <ele>3.0000000</ele>
        <time>2010-01-01T02:25:51Z</time>
      </trkpt>
      <trkpt lat="53.06177980" lon="8.730565650">
        <ele>5.0000000</ele>
        <time>2010-01-01T02:26:05Z</time>
      </trkpt>
      <trkpt lat="53.06193850" lon="8.731161540">
        <ele>4.0000000</ele>
        <time>2010-01-01T02:26:21Z</time>
      </trkpt>
      <trkpt lat="53.06208860" lon="8.731936570">
        <ele>3.0000000</ele>
        <time>2010-01-01T02:26:40Z</time>
      </trkpt>
      <trkpt lat="53.06227060" lon="8.732920310">
        <ele>1.0000000</ele>
        <time>2010-01-01T02:27:05Z</time>
      </trkpt>
      <trkpt lat="53.06233910" lon="8.733427250">
        <ele>1.0000000</ele>
        <time>2010-01-01T02:27:18Z</time>
      </trkpt>
      <trkpt lat="53.06238030" lon="8.733725450">
        <ele>1.0000000</ele>
        <time>2010-01-01T02:27:25Z</time>
      </trkpt>
      <trkpt lat="53.06246340" lon="8.734709810">
        <ele>1.0000000</ele>
        <time>2010-01-01T02:27:49Z</time>
      </trkpt>
      <trkpt lat="53.06249110" lon="8.735037940">
        <ele>3.0000000</ele>
        <time>2010-01-01T02:27:57Z</time>
      </trkpt>
      <trkpt lat="53.06253640" lon="8.735216730">
        <ele>3.0000000</ele>
        <time>2010-01-01T02:28:01Z</time>
      </trkpt>
      <trkpt lat="53.06263160" lon="8.735604130">
        <ele>5.0000000</ele>
        <time>2010-01-01T02:28:12Z</time>
      </trkpt>
      <trkpt lat="53.06267060" lon="8.736976760">
        <ele>6.0000000</ele>
        <time>2010-01-01T02:28:45Z</time>
      </trkpt>
      <trkpt lat="53.06281070" lon="8.738261460">
        <ele>5.0000000</ele>
        <time>2010-01-01T02:29:16Z</time>
      </trkpt>
      <trkpt lat="53.06292670" lon="8.739570370">
        <ele>9.0000000</ele>
        <time>2010-01-01T02:29:48Z</time>
      </trkpt>
      <trkpt lat="53.06297830" lon="8.740385770">
        <ele>8.0000000</ele>
        <time>2010-01-01T02:30:08Z</time>
      </trkpt>
      <trkpt lat="53.06277820" lon="8.740945490">
        <ele>7.0000000</ele>
        <time>2010-01-01T02:30:23Z</time>
      </trkpt>
      <trkpt lat="53.06308220" lon="8.744346030">
        <ele>4.0000000</ele>
        <time>2010-01-01T02:31:46Z</time>
      </trkpt>
      <trkpt lat="53.06312700" lon="8.744829200">
        <ele>4.0000000</ele>
        <time>2010-01-01T02:31:58Z</time>
      </trkpt>
      <trkpt lat="53.06328930" lon="8.746583210">
        <ele>3.0000000</ele>
        <time>2010-01-01T02:32:40Z</time>
      </trkpt>
      <trkpt lat="53.06339740" lon="8.747305870">
        <ele>4.0000000</ele>
        <time>2010-01-01T02:32:58Z</time>
      </trkpt>
      <trkpt lat="53.06357100" lon="8.748014140">
        <ele>4.0000000</ele>
        <time>2010-01-01T02:33:17Z</time>
      </trkpt>
      <trkpt lat="53.06374770" lon="8.748699560">
        <ele>3.0000000</ele>
        <time>2010-01-01T02:33:35Z</time>
      </trkpt>
      <trkpt lat="53.06410030" lon="8.749652580">
        <ele>6.0000000</ele>
        <time>2010-01-01T02:34:02Z</time>
      </trkpt>
      <trkpt lat="53.06471910" lon="8.751081620">
        <ele>5.0000000</ele>
        <time>2010-01-01T02:34:44Z</time>
      </trkpt>
      <trkpt lat="53.06587050" lon="8.753611990">
        <ele>6.0000000</ele>
        <time>2010-01-01T02:36:00Z</time>
      </trkpt>
      <trkpt lat="53.06587500" lon="8.753611960">
        <ele>6.0000000</ele>
        <time>2010-01-01T02:36:00Z</time>
      </trkpt>
      <trkpt lat="53.06588400" lon="8.753611910">
        <ele>6.0000000</ele>
        <time>2010-01-01T02:36:01Z</time>
      </trkpt>
      <trkpt lat="53.06626780" lon="8.754445450">
        <ele>9.0000000</ele>
        <time>2010-01-01T02:36:26Z</time>
      </trkpt>
      <trkpt lat="53.06813730" lon="8.758703190">
        <ele>4.0000000</ele>
        <time>2010-01-01T02:38:33Z</time>
      </trkpt>
      <trkpt lat="53.06833770" lon="8.759151600">
        <ele>5.0000000</ele>
        <time>2010-01-01T02:38:46Z</time>
      </trkpt>
      <trkpt lat="53.06889580" lon="8.760400360">
        <ele>7.0000000</ele>
        <time>2010-01-01T02:39:24Z</time>
      </trkpt>
      <trkpt lat="53.06896350" lon="8.760519380">
        <ele>6.0000000</ele>
        <time>2010-01-01T02:39:28Z</time>
      </trkpt>
      <trkpt lat="53.06918000" lon="8.760936070">
        <ele>6.0000000</ele>
        <time>2010-01-01T02:39:41Z</time>
      </trkpt>
      <trkpt lat="53.06919800" lon="8.760906120">
        <ele>6.0000000</ele>
        <time>2010-01-01T02:39:42Z</time>
      </trkpt>
      <trkpt lat="53.07011800" lon="8.762483080">
        <ele>3.0000000</ele>
        <time>2010-01-01T02:40:35Z</time>
      </trkpt>
      <trkpt lat="53.07032910" lon="8.762392370">
        <ele>4.0000000</ele>
        <time>2010-01-01T02:40:44Z</time>
      </trkpt>
      <trkpt lat="53.07058090" lon="8.762450680">
        <ele>3.0000000</ele>
        <time>2010-01-01T02:40:54Z</time>
      </trkpt>
      <trkpt lat="53.07089100" lon="8.762448980">
        <ele>2.0000000</ele>
        <time>2010-01-01T02:41:06Z</time>
      </trkpt>
      <trkpt lat="53.07165610" lon="8.762922390">
        <ele>4.0000000</ele>
        <time>2010-01-01T02:41:39Z</time>
      </trkpt>
      <trkpt lat="53.07171010" lon="8.762951940">
        <ele>5.0000000</ele>
        <time>2010-01-01T02:41:41Z</time>
      </trkpt>
      <trkpt lat="53.07171910" lon="8.762951890">
        <ele>5.0000000</ele>
        <time>2010-01-01T02:41:41Z</time>
      </trkpt>
      <trkpt lat="53.07173250" lon="8.762921970">
        <ele>5.0000000</ele>
        <time>2010-01-01T02:41:42Z</time>
      </trkpt>
      <trkpt lat="53.07223230" lon="8.763396850">
        <ele>6.0000000</ele>
        <time>2010-01-01T02:42:05Z</time>
      </trkpt>
      <trkpt lat="53.07296660" lon="8.764198830">
        <ele>4.0000000</ele>
        <time>2010-01-01T02:42:41Z</time>
      </trkpt>
      <trkpt lat="53.07297110" lon="8.764228660">
        <ele>4.0000000</ele>
        <time>2010-01-01T02:42:41Z</time>
      </trkpt>
      <trkpt lat="53.07307030" lon="8.764377370">
        <ele>4.0000000</ele>
        <time>2010-01-01T02:42:47Z</time>
      </trkpt>
      <trkpt lat="53.07396960" lon="8.765598530">
        <ele>6.0000000</ele>
        <time>2010-01-01T02:43:33Z</time>
      </trkpt>
      <trkpt lat="53.07407280" lon="8.765469780">
        <ele>6.0000000</ele>
        <time>2010-01-01T02:43:38Z</time>
      </trkpt>
      <trkpt lat="53.07420540" lon="8.765625000">
        <ele>6.0000000</ele>
        <time>2010-01-01T02:43:45Z</time>
      </trkpt>
      <trkpt lat="53.07416950" lon="8.765813110">
        <ele>6.0000000</ele>
        <time>2010-01-01T02:43:49Z</time>
      </trkpt>
      <trkpt lat="53.07426890" lon="8.765923190">
        <ele>5.0000000</ele>
        <time>2010-01-01T02:43:54Z</time>
      </trkpt>
      <trkpt lat="53.07476250" lon="8.766424650">
        <ele>6.0000000</ele>
        <time>2010-01-01T02:44:17Z</time>
      </trkpt>
      <trkpt lat="53.07491070" lon="8.766328090">
        <ele>5.0000000</ele>
        <time>2010-01-01T02:44:24Z</time>
      </trkpt>
      <trkpt lat="53.07530390" lon="8.766746520">
        <ele>2.0000000</ele>
        <time>2010-01-01T02:44:42Z</time>
      </trkpt>
      <trkpt lat="53.07575510" lon="8.767240040">
        <ele>6.0000000</ele>
        <time>2010-01-01T02:45:04Z</time>
      </trkpt>
      <trkpt lat="53.07584910" lon="8.767198340">
        <ele>5.0000000</ele>
        <time>2010-01-01T02:45:08Z</time>
      </trkpt>
      <trkpt lat="53.07602930" lon="8.767406350">
        <ele>5.0000000</ele>
        <time>2010-01-01T02:45:17Z</time>
      </trkpt>
      <trkpt lat="53.07724970" lon="8.768653680">
        <ele>6.0000000</ele>
        <time>2010-01-01T02:46:14Z</time>
      </trkpt>
      <trkpt lat="53.07781270" lon="8.769247770">
        <ele>4.0000000</ele>
        <time>2010-01-01T02:46:41Z</time>
      </trkpt>
      <trkpt lat="53.07875850" lon="8.770227970">
        <ele>6.0000000</ele>
        <time>2010-01-01T02:47:25Z</time>
      </trkpt>
      <trkpt lat="53.07852650" lon="8.770630350">
        <ele>5.0000000</ele>
        <time>2010-01-01T02:47:39Z</time>
      </trkpt>
      <trkpt lat="53.07904210" lon="8.771542310">
        <ele>5.0000000</ele>
        <time>2010-01-01T02:48:09Z</time>
      </trkpt>
      <trkpt lat="53.07874560" lon="8.772153850">
        <ele>6.0000000</ele>
        <time>2010-01-01T02:48:28Z</time>
      </trkpt>
      <trkpt lat="53.07844420" lon="8.772737530">
        <ele>6.0000000</ele>
        <time>2010-01-01T02:48:46Z</time>
      </trkpt>
      <trkpt lat="53.07820060" lon="8.773213930">
        <ele>7.0000000</ele>
        <time>2010-01-01T02:49:01Z</time>
      </trkpt>
      <trkpt lat="53.07765160" lon="8.774264330">
        <ele>5.0000000</ele>
        <time>2010-01-01T02:49:35Z</time>
      </trkpt>
      <trkpt lat="53.07738570" lon="8.774793140">
        <ele>3.0000000</ele>
        <time>2010-01-01T02:49:51Z</time>
      </trkpt>
      <trkpt lat="53.07722150" lon="8.775042810">
        <ele>3.0000000</ele>
        <time>2010-01-01T02:50:00Z</time>
      </trkpt>
      <trkpt lat="53.07708920" lon="8.775297400">
        <ele>3.0000000</ele>
        <time>2010-01-01T02:50:08Z</time>
      </trkpt>
      <trkpt lat="53.07688940" lon="8.775104280">
        <ele>3.0000000</ele>
        <time>2010-01-01T02:50:18Z</time>
      </trkpt>
      <trkpt lat="53.07676050" lon="8.775501250">
        <ele>4.0000000</ele>
        <time>2010-01-01T02:50:29Z</time>
      </trkpt>
      <trkpt lat="53.07664800" lon="8.775971290">
        <ele>4.0000000</ele>
        <time>2010-01-01T02:50:41Z</time>
      </trkpt>
      <trkpt lat="53.07614180" lon="8.778451680">
        <ele>4.0000000</ele>
        <time>2010-01-01T02:51:44Z</time>
      </trkpt>
      <trkpt lat="53.07583240" lon="8.780350680">
        <ele>3.0000000</ele>
        <time>2010-01-01T02:52:31Z</time>
      </trkpt>
      <trkpt lat="53.07570990" lon="8.780930040">
        <ele>4.0000000</ele>
        <time>2010-01-01T02:52:46Z</time>
      </trkpt>
      <trkpt lat="53.07546500" lon="8.782603740">
        <ele>5.0000000</ele>
        <time>2010-01-01T02:53:27Z</time>
      </trkpt>
      <trkpt lat="53.07544570" lon="8.783665890">
        <ele>6.0000000</ele>
        <time>2010-01-01T02:53:53Z</time>
      </trkpt>
      <trkpt lat="53.07546500" lon="8.784127230">
        <ele>7.0000000</ele>
        <time>2010-01-01T02:54:04Z</time>
      </trkpt>
      <trkpt lat="53.07532970" lon="8.784449100">
        <ele>8.0000000</ele>
        <time>2010-01-01T02:54:13Z</time>
      </trkpt>
      <trkpt lat="53.07511050" lon="8.784931890">
        <ele>8.0000000</ele>
        <time>2010-01-01T02:54:28Z</time>
      </trkpt>
      <trkpt lat="53.07486560" lon="8.785532710">
        <ele>6.0000000</ele>
        <time>2010-01-01T02:54:45Z</time>
      </trkpt>
      <trkpt lat="53.07471090" lon="8.785747280">
        <ele>5.0000000</ele>
        <time>2010-01-01T02:54:53Z</time>
      </trkpt>
      <trkpt lat="53.07454970" lon="8.786133520">
        <ele>2.0000000</ele>
        <time>2010-01-01T02:55:05Z</time>
      </trkpt>
      <trkpt lat="53.07480110" lon="8.786305180">
        <ele>3.0000000</ele>
        <time>2010-01-01T02:55:16Z</time>
      </trkpt>
      <trkpt lat="53.07671540" lon="8.787753580">
        <ele>7.0000000</ele>
        <time>2010-01-01T02:56:40Z</time>
      </trkpt>
      <trkpt lat="53.07775310" lon="8.788408040">
        <ele>8.0000000</ele>
        <time>2010-01-01T02:57:24Z</time>
      </trkpt>
      <trkpt lat="53.07844920" lon="8.788783550">
        <ele>10.000000</ele>
        <time>2010-01-01T02:57:53Z</time>
      </trkpt>
      <trkpt lat="53.07914520" lon="8.789362900">
        <ele>13.000000</ele>
        <time>2010-01-01T02:58:25Z</time>
      </trkpt>
      <trkpt lat="53.07919030" lon="8.789695500">
        <ele>10.000000</ele>
        <time>2010-01-01T02:58:33Z</time>
      </trkpt>
      <trkpt lat="53.07913880" lon="8.789931530">
        <ele>9.0000000</ele>
        <time>2010-01-01T02:58:39Z</time>
      </trkpt>
      <trkpt lat="53.08087240" lon="8.791229720">
        <ele>3.0000000</ele>
        <time>2010-01-01T02:59:55Z</time>
      </trkpt>
      <trkpt lat="53.08089820" lon="8.791508670">
        <ele>3.0000000</ele>
        <time>2010-01-01T03:00:02Z</time>
      </trkpt>
      <trkpt lat="53.08077580" lon="8.791691060">
        <ele>4.0000000</ele>
        <time>2010-01-01T03:00:08Z</time>
      </trkpt>
      <trkpt lat="53.08055020" lon="8.792452810">
        <ele>4.0000000</ele>
        <time>2010-01-01T03:00:29Z</time>
      </trkpt>
      <trkpt lat="53.08040420" lon="8.792612110">
        <ele>4.0000000</ele>
        <time>2010-01-01T03:00:36Z</time>
      </trkpt>
      <trkpt lat="53.08007830" lon="8.793867670">
        <ele>5.0000000</ele>
        <time>2010-01-01T03:01:09Z</time>
      </trkpt>
      <trkpt lat="53.07989520" lon="8.794555250">
        <ele>5.0000000</ele>
        <time>2010-01-01T03:01:27Z</time>
      </trkpt>
      <trkpt lat="53.07994440" lon="8.794662950">
        <ele>6.0000000</ele>
        <time>2010-01-01T03:01:30Z</time>
      </trkpt>
      <trkpt lat="53.07978330" lon="8.795274490">
        <ele>5.0000000</ele>
        <time>2010-01-01T03:01:46Z</time>
      </trkpt>
      <trkpt lat="53.08025370" lon="8.795467610">
        <ele>14.000000</ele>
        <time>2010-01-01T03:02:05Z</time>
      </trkpt>
      <trkpt lat="53.08061460" lon="8.795531980">
        <ele>13.000000</ele>
        <time>2010-01-01T03:02:20Z</time>
      </trkpt>
      <trkpt lat="53.08121400" lon="8.796089880">
        <ele>12.000000</ele>
        <time>2010-01-01T03:02:47Z</time>
      </trkpt>
      <trkpt lat="53.08141380" lon="8.796465390">
        <ele>11.000000</ele>
        <time>2010-01-01T03:02:59Z</time>
      </trkpt>
      <trkpt lat="53.08165220" lon="8.796422480">
        <ele>11.000000</ele>
        <time>2010-01-01T03:03:09Z</time>
      </trkpt>
      <trkpt lat="53.08196800" lon="8.796454660">
        <ele>13.000000</ele>
        <time>2010-01-01T03:03:22Z</time>
      </trkpt>
      <trkpt lat="53.08238690" lon="8.796679970">
        <ele>9.0000000</ele>
        <time>2010-01-01T03:03:39Z</time>
      </trkpt>
      <trkpt lat="53.08262540" lon="8.796862360">
        <ele>8.0000000</ele>
        <time>2010-01-01T03:03:50Z</time>
      </trkpt>
      <trkpt lat="53.08308290" lon="8.797259330">
        <ele>8.0000000</ele>
        <time>2010-01-01T03:04:11Z</time>
      </trkpt>
      <trkpt lat="53.08333420" lon="8.797634840">
        <ele>8.0000000</ele>
        <time>2010-01-01T03:04:24Z</time>
      </trkpt>
      <trkpt lat="53.08386910" lon="8.799329990">
        <ele>7.0000000</ele>
        <time>2010-01-01T03:05:10Z</time>
      </trkpt>
      <trkpt lat="53.08304420" lon="8.801014420">
        <ele>11.000000</ele>
        <time>2010-01-01T03:06:02Z</time>
      </trkpt>
      <trkpt lat="53.08274130" lon="8.802280420">
        <ele>8.0000000</ele>
        <time>2010-01-01T03:06:35Z</time>
      </trkpt>
      <trkpt lat="53.08241910" lon="8.803685900">
        <ele>7.0000000</ele>
        <time>2010-01-01T03:07:11Z</time>
      </trkpt>
      <trkpt lat="53.08182620" lon="8.805145020">
        <ele>11.000000</ele>
        <time>2010-01-01T03:07:54Z</time>
      </trkpt>
      <trkpt lat="53.08127200" lon="8.805944320">
        <ele>9.0000000</ele>
        <time>2010-01-01T03:08:23Z</time>
      </trkpt>
      <trkpt lat="53.08143310" lon="8.806373470">
        <ele>11.000000</ele>
        <time>2010-01-01T03:08:35Z</time>
      </trkpt>
      <trkpt lat="53.08155560" lon="8.806582680">
        <ele>12.000000</ele>
        <time>2010-01-01T03:08:42Z</time>
      </trkpt>
      <trkpt lat="53.08176820" lon="8.806829450">
        <ele>12.000000</ele>
        <time>2010-01-01T03:08:53Z</time>
      </trkpt>
      <trkpt lat="53.08213560" lon="8.807301520">
        <ele>11.000000</ele>
        <time>2010-01-01T03:09:11Z</time>
      </trkpt>
      <trkpt lat="53.08289280" lon="8.808599710">
        <ele>9.0000000</ele>
        <time>2010-01-01T03:09:55Z</time>
      </trkpt>
      <trkpt lat="53.08309260" lon="8.808900110">
        <ele>9.0000000</ele>
        <time>2010-01-01T03:10:05Z</time>
      </trkpt>
      <trkpt lat="53.08344380" lon="8.809399000">
        <ele>7.0000000</ele>
        <time>2010-01-01T03:10:24Z</time>
      </trkpt>
      <trkpt lat="53.08351140" lon="8.809447280">
        <ele>6.0000000</ele>
        <time>2010-01-01T03:10:27Z</time>
      </trkpt>
      <trkpt lat="53.08362740" lon="8.809586760">
        <ele>6.0000000</ele>
        <time>2010-01-01T03:10:33Z</time>
      </trkpt>
      <trkpt lat="53.08377570" lon="8.809742330">
        <ele>7.0000000</ele>
        <time>2010-01-01T03:10:40Z</time>
      </trkpt>
      <trkpt lat="53.08399750" lon="8.810003040">
        <ele>9.0000000</ele>
        <time>2010-01-01T03:10:50Z</time>
      </trkpt>
      <trkpt lat="53.08372870" lon="8.810571550">
        <ele>10.000000</ele>
        <time>2010-01-01T03:11:08Z</time>
      </trkpt>
      <trkpt lat="53.08343140" lon="8.811203530">
        <ele>9.0000000</ele>
        <time>2010-01-01T03:11:27Z</time>
      </trkpt>
      <trkpt lat="53.08323600" lon="8.811618790">
        <ele>7.0000000</ele>
        <time>2010-01-01T03:11:40Z</time>
      </trkpt>
      <trkpt lat="53.08315090" lon="8.811798310">
        <ele>7.0000000</ele>
        <time>2010-01-01T03:11:45Z</time>
      </trkpt>
      <trkpt lat="53.08308930" lon="8.811941740">
        <ele>7.0000000</ele>
        <time>2010-01-01T03:11:50Z</time>
      </trkpt>
      <trkpt lat="53.08323110" lon="8.812129490">
        <ele>8.0000000</ele>
        <time>2010-01-01T03:11:57Z</time>
      </trkpt>
      <trkpt lat="53.08329230" lon="8.812140220">
        <ele>8.0000000</ele>
        <time>2010-01-01T03:11:59Z</time>
      </trkpt>
    </trkseg>
  </trk>
</gpx>

